Time;durP1;ratioP1;P1;durP2;ratioP2;P2;SDS_P1;SDS_P2;PMS_P1;PMS_P2;Temp;Humidity;BMP_temperature;BMP_pressure;BME280_temperature;BME280_humidity;BME280_pressure;Samples;Min_cycle;Max_cycle;Signal;HPM_P1;HPM_P2
2022/05/17 00:00:59;;;;;;;0.60;0.60;;;16.00;81.20;15.30;98739.00;;;;5016022;28;20194;-76
2022/05/17 00:03:28;;;;;;;0.60;0.60;;;15.90;80.90;15.30;98736.00;;;;5016013;28;20213;-75
2022/05/17 00:05:57;;;;;;;1.73;1.63;;;15.90;81.40;15.20;98729.00;;;;5015837;28;20550;-75
2022/05/17 00:08:24;;;;;;;0.60;0.60;;;15.80;80.70;15.30;98731.00;;;;5015909;28;20189;-75
2022/05/17 00:10:50;;;;;;;0.50;0.50;;;15.80;81.30;15.20;98725.00;;;;5015438;28;20193;-75
2022/05/17 00:13:17;;;;;;;1.53;1.43;;;15.70;81.30;15.20;98726.00;;;;5016011;28;20212;-75
2022/05/17 00:15:52;;;;;;;0.50;0.50;;;15.70;81.60;15.20;98730.00;;;;5015700;28;20287;-75
2022/05/17 00:18:21;;;;;;;0.60;0.60;;;15.70;81.40;15.20;98741.00;;;;5015916;28;20289;-75
2022/05/17 00:20:48;;;;;;;1.60;1.50;;;15.70;81.20;15.10;98735.00;;;;5015741;28;20211;-75
2022/05/17 00:23:16;;;;;;;0.80;0.80;;;15.70;81.40;15.10;98735.00;;;;4997367;28;20415;-75
2022/05/17 00:25:47;;;;;;;0.53;0.53;;;15.70;81.60;15.20;98737.00;;;;5015691;28;20592;-75
2022/05/17 00:28:15;;;;;;;0.80;0.80;;;15.70;82.00;15.20;98729.00;;;;4998637;28;20209;-75
2022/05/17 00:30:42;;;;;;;1.80;1.70;;;15.70;82.30;15.10;98738.00;;;;5015662;28;20240;-75
2022/05/17 00:33:10;;;;;;;0.50;0.50;;;15.60;81.70;15.10;98736.00;;;;5015670;28;20224;-75
2022/05/17 00:35:38;;;;;;;0.53;0.53;;;15.60;82.10;15.00;98733.00;;;;5015571;28;20282;-76
2022/05/17 00:38:05;;;;;;;0.50;0.50;;;15.60;82.20;15.00;98741.00;;;;5015599;28;20198;-75
2022/05/17 00:40:34;;;;;;;0.50;0.50;;;15.50;82.70;15.10;98742.00;;;;5015513;28;20201;-75
2022/05/17 00:43:00;;;;;;;0.87;0.87;;;15.50;83.10;15.00;98740.00;;;;4998204;28;20227;-75
2022/05/17 00:45:28;;;;;;;1.20;1.10;;;15.50;82.60;14.90;98741.00;;;;5015260;28;20218;-75
2022/05/17 00:48:04;;;;;;;0.77;0.77;;;15.40;82.30;14.80;98733.00;;;;5015231;28;20214;-74
2022/05/17 00:50:35;;;;;;;0.60;0.60;;;15.40;82.60;14.80;98736.00;;;;5015343;28;20201;-76
2022/05/17 00:53:09;;;;;;;0.60;0.60;;;15.40;83.00;14.70;98728.00;;;;4998028;28;20212;-76
2022/05/17 00:55:42;;;;;;;1.80;0.73;;;15.30;83.10;14.70;98730.00;;;;5015204;28;20695;-76
2022/05/17 00:58:15;;;;;;;0.50;0.50;;;15.30;83.70;14.90;98725.00;;;;5015282;28;20224;-76
2022/05/17 01:00:51;;;;;;;0.40;0.40;;;15.30;83.90;14.80;98723.00;;;;5015224;28;20197;-76
2022/05/17 01:03:24;;;;;;;0.90;0.90;;;15.40;82.60;14.70;98720.00;;;;5015230;28;20292;-76
2022/05/17 01:05:54;;;;;;;0.90;0.90;;;15.30;83.20;14.70;98712.00;;;;5015210;28;20260;-76
2022/05/17 01:08:25;;;;;;;0.47;0.47;;;15.20;83.40;14.70;98720.00;;;;5014947;28;20217;-76
2022/05/17 01:10:51;;;;;;;0.60;0.60;;;15.20;84.00;14.60;98721.00;;;;5015258;28;20268;-76
2022/05/17 01:16:07;;;;;;;1.23;1.23;;;15.10;83.50;14.50;98721.00;;;;5014877;28;20308;-75
2022/05/17 01:18:39;;;;;;;0.90;0.90;;;15.00;83.70;14.40;98726.00;;;;5014903;28;20201;-76
2022/05/17 01:21:07;;;;;;;0.40;0.40;;;15.00;83.90;14.40;98716.00;;;;5015071;28;20212;-75
2022/05/17 01:23:34;;;;;;;0.70;0.70;;;15.00;83.90;14.40;98715.00;;;;5014862;28;20197;-76
2022/05/17 01:26:03;;;;;;;0.90;0.90;;;15.00;84.10;14.40;98724.00;;;;4997401;28;20308;-76
2022/05/17 01:28:37;;;;;;;0.60;0.60;;;14.90;84.20;14.40;98722.00;;;;5014721;28;20221;-76
2022/05/17 01:31:05;;;;;;;1.13;1.13;;;14.90;84.10;14.40;98722.00;;;;5014698;28;20202;-75
2022/05/17 01:33:35;;;;;;;0.50;0.50;;;14.90;84.80;14.30;98715.00;;;;5014521;28;20244;-76
2022/05/17 01:36:04;;;;;;;0.60;0.60;;;14.90;84.80;14.20;98716.00;;;;5014566;28;20229;-76
2022/05/17 01:38:35;;;;;;;1.00;1.00;;;14.80;85.50;14.20;98716.00;;;;5014858;28;20197;-75
2022/05/17 01:41:02;;;;;;;0.77;0.77;;;14.80;86.30;14.30;98719.00;;;;5014541;28;20209;-76
2022/05/17 01:43:29;;;;;;;0.80;0.80;;;14.80;86.50;14.30;98696.00;;;;5014470;28;20201;-76
2022/05/17 01:45:56;;;;;;;0.43;0.43;;;14.90;86.40;14.20;98717.00;;;;5014295;28;20665;-76
2022/05/17 01:48:22;;;;;;;0.47;0.47;;;14.80;85.60;14.10;98718.00;;;;5014393;28;20286;-76
2022/05/17 01:50:49;;;;;;;0.60;0.60;;;14.80;86.00;14.10;98721.00;;;;4996971;28;20205;-76
2022/05/17 01:53:15;;;;;;;1.10;1.00;;;14.70;86.30;14.20;98723.00;;;;5014473;28;20225;-75
2022/05/17 01:55:45;;;;;;;0.80;0.80;;;14.80;86.30;14.20;98728.00;;;;4997162;28;20229;-76
2022/05/17 01:58:11;;;;;;;0.73;0.73;;;14.70;86.50;14.30;98716.00;;;;5014405;28;20324;-75
2022/05/17 02:00:38;;;;;;;0.80;0.80;;;14.80;86.30;14.10;98709.00;;;;5014223;28;20263;-76
2022/05/17 02:03:05;;;;;;;1.00;1.00;;;14.70;86.00;14.10;98710.00;;;;5014140;28;20196;-75
2022/05/17 02:05:32;;;;;;;1.70;1.60;;;14.70;85.70;14.00;98723.00;;;;4997006;28;20316;-75
2022/05/17 02:07:59;;;;;;;0.53;0.53;;;14.60;85.80;14.00;98713.00;;;;5014315;28;20252;-76
2022/05/17 02:10:27;;;;;;;0.70;0.70;;;14.60;85.90;13.90;98710.00;;;;5014145;28;20595;-75
2022/05/17 02:12:57;;;;;;;1.07;1.07;;;14.50;85.80;13.90;98710.00;;;;5014114;28;20276;-76
2022/05/17 02:15:25;;;;;;;1.10;1.10;;;14.40;86.50;13.80;98695.00;;;;5014077;28;20229;-76
2022/05/17 02:17:54;;;;;;;1.00;1.00;;;14.30;86.90;13.60;98714.00;;;;5013914;28;20217;-76
2022/05/17 02:20:23;;;;;;;0.70;0.70;;;14.30;87.70;13.60;98712.00;;;;5014022;28;20232;-76
2022/05/17 02:22:50;;;;;;;1.33;1.23;;;14.20;88.70;13.70;98706.00;;;;5014115;28;20297;-75
2022/05/17 02:25:17;;;;;;;0.87;0.87;;;14.30;89.30;13.80;98701.00;;;;5014012;28;20291;-75
2022/05/17 02:27:43;;;;;;;0.70;0.70;;;14.30;89.40;13.90;98712.00;;;;5013803;28;20231;-75
2022/05/17 02:30:13;;;;;;;0.83;0.83;;;14.30;89.20;13.80;98714.00;;;;5013999;28;20229;-76
2022/05/17 02:32:39;;;;;;;0.50;0.50;;;14.30;89.10;13.80;98708.00;;;;4996904;28;20724;-76
2022/05/17 02:35:09;;;;;;;0.77;0.77;;;14.30;89.40;13.60;98718.00;;;;5013843;28;20237;-76
2022/05/17 02:37:36;;;;;;;0.70;0.70;;;14.30;89.40;13.50;98705.00;;;;4996860;28;20662;-76
2022/05/17 02:40:05;;;;;;;3.10;1.73;;;14.10;90.10;13.60;98723.00;;;;5013925;28;20190;-75
2022/05/17 02:42:31;;;;;;;1.23;1.13;;;14.10;90.70;13.50;98719.00;;;;5013641;28;20225;-75
2022/05/17 02:45:00;;;;;;;0.70;0.70;;;14.10;90.60;13.50;98720.00;;;;5013579;28;20255;-75
2022/05/17 02:47:27;;;;;;;0.80;0.80;;;14.10;91.00;13.70;98729.00;;;;5016813;28;20200;-76
2022/05/17 02:49:54;;;;;;;0.43;0.43;;;14.20;90.60;13.70;98724.00;;;;5017357;28;20258;-75
2022/05/17 02:52:20;;;;;;;0.90;0.90;;;14.20;90.20;13.60;98723.00;;;;5017395;28;20209;-76
2022/05/17 02:54:47;;;;;;;1.00;1.00;;;14.20;90.20;13.70;98724.00;;;;5017076;28;20256;-77
2022/05/17 02:57:13;;;;;;;0.70;0.70;;;14.20;90.50;13.60;98728.00;;;;5017138;28;20205;-76
2022/05/17 02:59:40;;;;;;;0.83;0.83;;;14.20;90.50;13.60;98730.00;;;;5017374;28;20211;-76
2022/05/17 03:02:06;;;;;;;0.90;0.90;;;14.20;90.50;13.70;98737.00;;;;4999572;28;20233;-75
2022/05/17 03:04:33;;;;;;;2.10;0.80;;;14.20;90.60;13.70;98742.00;;;;5017012;28;20201;-76
2022/05/17 03:07:00;;;;;;;0.90;0.90;;;14.20;90.40;13.50;98747.00;;;;5016811;28;20225;-76
2022/05/17 03:09:29;;;;;;;0.80;0.80;;;14.10;90.20;13.50;98747.00;;;;5016874;28;20236;-76
2022/05/17 03:11:57;;;;;;;0.60;0.60;;;14.10;90.80;13.40;98741.00;;;;5016742;28;20412;-76
2022/05/17 03:14:24;;;;;;;0.87;0.87;;;14.00;91.10;13.50;98749.00;;;;5016909;28;20241;-76
2022/05/17 03:16:50;;;;;;;0.73;0.73;;;14.10;91.00;13.50;98751.00;;;;4999656;28;20201;-77
2022/05/17 03:19:18;;;;;;;1.30;1.20;;;14.10;90.80;13.50;98757.00;;;;5016602;28;20228;-76
2022/05/17 03:21:47;;;;;;;0.90;0.90;;;14.00;91.20;13.60;98751.00;;;;5016566;28;20287;-76
2022/05/17 03:24:13;;;;;;;1.43;1.43;;;14.10;91.30;13.50;98753.00;;;;4999291;28;20232;-76
2022/05/17 03:26:41;;;;;;;0.50;0.50;;;14.10;90.70;13.50;98754.00;;;;5016751;28;20225;-76
2022/05/17 03:29:08;;;;;;;0.70;0.70;;;14.10;90.80;13.50;98764.00;;;;5016518;28;20197;-75
2022/05/17 03:31:37;;;;;;;1.03;0.93;;;14.00;90.40;13.50;98768.00;;;;4999343;28;20210;-76
2022/05/17 03:34:03;;;;;;;1.23;1.23;;;14.10;90.50;13.30;98766.00;;;;5016452;28;20276;-76
2022/05/17 03:36:30;;;;;;;3.50;1.17;;;14.00;90.40;13.40;98763.00;;;;5016635;28;20210;-76
2022/05/17 03:38:57;;;;;;;1.87;1.77;;;14.00;90.90;13.50;98757.00;;;;4998977;28;20216;-76
2022/05/17 03:41:24;;;;;;;0.67;0.67;;;14.00;89.10;13.50;98760.00;;;;5016269;28;20221;-76
2022/05/17 03:43:52;;;;;;;1.07;1.03;;;14.10;88.90;13.40;98765.00;;;;5016318;28;20220;-77
2022/05/17 03:46:19;;;;;;;0.90;0.90;;;14.00;89.20;13.50;98769.00;;;;5016219;28;20300;-76
2022/05/17 03:48:47;;;;;;;0.50;0.50;;;14.00;89.90;13.40;98770.00;;;;5016054;28;20356;-76
2022/05/17 03:51:18;;;;;;;1.07;0.97;;;14.00;89.90;13.40;98777.00;;;;5016223;28;20212;-76
2022/05/17 03:53:50;;;;;;;1.13;1.13;;;14.00;90.10;13.40;98774.00;;;;5016173;28;20653;-76
2022/05/17 03:56:17;;;;;;;0.90;0.90;;;14.00;90.00;13.30;98773.00;;;;5016189;28;20217;-76
2022/05/17 03:58:44;;;;;;;1.30;1.20;;;13.90;90.00;13.30;98786.00;;;;4997591;28;20835;-76
2022/05/17 04:01:12;;;;;;;0.63;0.63;;;13.80;90.50;13.20;98785.00;;;;5015990;28;20295;-76
2022/05/17 04:03:40;;;;;;;0.90;0.90;;;13.80;89.90;13.30;98781.00;;;;5015984;28;20640;-74
2022/05/17 04:06:07;;;;;;;1.10;1.10;;;13.90;90.70;13.30;98791.00;;;;5016210;28;20236;-75
2022/05/17 04:08:36;;;;;;;0.50;0.50;;;13.90;90.80;13.30;98786.00;;;;5015805;28;20287;-76
2022/05/17 04:11:04;;;;;;;1.47;1.37;;;13.90;91.10;13.30;98756.00;;;;5015907;28;20217;-76
2022/05/17 04:13:32;;;;;;;1.00;1.00;;;13.90;90.80;13.40;98793.00;;;;5016008;28;20715;-74
2022/05/17 04:16:00;;;;;;;1.27;1.27;;;14.00;90.70;13.30;98796.00;;;;5015865;28;20222;-75
2022/05/17 04:18:27;;;;;;;0.70;0.70;;;13.90;90.70;13.30;98792.00;;;;5015957;28;20217;-77
2022/05/17 04:20:59;;;;;;;1.67;1.57;;;13.90;90.70;13.40;98799.00;;;;5015808;28;20560;-76
2022/05/17 04:23:25;;;;;;;0.70;0.70;;;13.90;90.60;13.50;98808.00;;;;4998589;28;20292;-78
2022/05/17 04:25:52;;;;;;;1.17;1.17;;;13.90;91.00;13.50;98806.00;;;;5015713;28;20232;-77
2022/05/17 04:28:18;;;;;;;0.80;0.80;;;14.10;90.50;13.40;98807.00;;;;5015628;28;20282;-76
2022/05/17 04:30:45;;;;;;;0.87;0.87;;;14.00;89.80;13.50;98810.00;;;;5015572;28;20294;-76
2022/05/17 04:33:12;;;;;;;0.73;0.67;;;14.00;90.10;13.50;98813.00;;;;5015598;28;20327;-76
2022/05/17 04:35:39;;;;;;;1.23;1.20;;;14.00;89.80;13.50;98817.00;;;;5015648;28;20201;-76
2022/05/17 04:38:07;;;;;;;1.00;1.00;;;14.00;90.10;13.50;98811.00;;;;5015546;28;20365;-77
2022/05/17 04:40:34;;;;;;;1.00;1.00;;;14.10;90.40;13.60;98814.00;;;;5015438;28;20201;-77
2022/05/17 04:43:03;;;;;;;0.97;0.97;;;14.10;90.30;13.70;98815.00;;;;4998087;28;20225;-77
2022/05/17 04:45:30;;;;;;;0.97;0.97;;;14.20;90.40;13.70;98815.00;;;;5015281;28;20299;-76
2022/05/17 04:47:57;;;;;;;0.50;0.50;;;14.20;90.30;13.50;98816.00;;;;5015249;28;20287;-76
2022/05/17 04:50:26;;;;;;;0.70;0.70;;;14.20;90.90;13.50;98818.00;;;;5015790;28;20204;-77
2022/05/17 04:52:55;;;;;;;0.90;0.90;;;14.20;91.40;13.60;98815.00;;;;4998041;28;20645;-77
2022/05/17 04:55:25;;;;;;;0.50;0.50;;;14.20;91.80;13.60;98809.00;;;;5015022;28;20217;-77
2022/05/17 04:57:51;;;;;;;0.77;0.77;;;14.20;92.30;13.80;98817.00;;;;5015252;28;20201;-77
2022/05/17 05:00:22;;;;;;;2.17;1.03;;;14.20;92.80;13.80;98821.00;;;;5015125;28;20221;-77
2022/05/17 05:02:49;;;;;;;0.60;0.60;;;14.30;92.60;13.90;98829.00;;;;5015430;28;20194;-76
2022/05/17 05:05:18;;;;;;;11.20;2.30;;;14.40;93.50;13.90;98803.00;;;;5015236;28;20299;-76
2022/05/17 05:07:46;;;;;;;0.67;0.67;;;14.40;93.00;13.90;98794.00;;;;5015152;28;20687;-77
2022/05/17 05:10:14;;;;;;;0.80;0.80;;;14.50;93.50;14.00;98826.00;;;;5014710;28;20205;-77
2022/05/17 05:12:41;;;;;;;1.00;0.90;;;14.50;93.80;14.10;98819.00;;;;5015083;28;20209;-77
2022/05/17 05:15:10;;;;;;;0.97;0.97;;;14.60;94.10;14.20;98820.00;;;;5014881;28;20627;-76
2022/05/17 05:17:39;;;;;;;1.10;1.10;;;14.70;94.30;14.20;98824.00;;;;4998530;28;20260;-77
2022/05/17 05:20:11;;;;;;;1.10;1.10;;;14.80;94.40;14.40;98825.00;;;;5014760;28;20241;-76
2022/05/17 05:22:41;;;;;;;2.30;1.77;;;14.90;94.40;14.40;98826.00;;;;4997702;28;20205;-76
2022/05/17 05:25:10;;;;;;;0.73;0.73;;;15.00;94.10;14.50;98828.00;;;;5014704;28;20197;-76
2022/05/17 05:27:39;;;;;;;0.90;0.90;;;15.00;94.10;14.60;98804.00;;;;4997791;28;20248;-77
2022/05/17 05:30:09;;;;;;;0.70;0.70;;;15.10;94.30;14.70;98826.00;;;;5014969;28;20213;-77
2022/05/17 05:32:36;;;;;;;0.77;0.77;;;15.20;94.00;14.70;98822.00;;;;4997700;28;20263;-77
2022/05/17 05:35:04;;;;;;;1.13;1.13;;;15.20;93.40;14.80;98823.00;;;;4997507;28;20675;-77
2022/05/17 05:37:30;;;;;;;1.03;1.03;;;15.30;93.50;14.90;98830.00;;;;5014549;28;20212;-77
2022/05/17 05:39:57;;;;;;;1.17;1.17;;;15.40;93.50;15.00;98832.00;;;;5014584;28;20189;-77
2022/05/17 05:42:24;;;;;;;0.80;0.80;;;15.50;93.40;15.10;98828.00;;;;5014560;28;20624;-77
2022/05/17 05:44:51;;;;;;;1.30;1.23;;;15.70;93.40;15.30;98835.00;;;;5014577;28;20197;-77
2022/05/17 05:47:17;;;;;;;0.90;0.90;;;15.80;93.10;15.50;98836.00;;;;5014236;28;20684;-76
2022/05/17 05:49:44;;;;;;;1.00;1.00;;;15.90;91.70;15.40;98832.00;;;;5014487;28;20205;-76
2022/05/17 05:52:10;;;;;;;0.97;0.97;;;15.90;91.40;15.60;98836.00;;;;5014396;28;20189;-77
2022/05/17 05:54:37;;;;;;;0.83;0.83;;;16.00;91.20;15.60;98836.00;;;;5014483;28;20380;-77
2022/05/17 05:57:05;;;;;;;1.10;1.10;;;16.10;90.50;15.70;98834.00;;;;4997095;28;20343;-77
2022/05/17 05:59:32;;;;;;;1.40;1.40;;;16.30;89.20;15.90;98840.00;;;;4997136;28;20197;-76
2022/05/17 06:01:58;;;;;;;0.87;0.87;;;16.30;89.90;16.00;98841.00;;;;5014271;28;20679;-77
2022/05/17 06:04:27;;;;;;;0.80;0.80;;;16.50;89.90;16.00;98837.00;;;;5014242;28;20213;-76
2022/05/17 06:06:54;;;;;;;1.10;1.10;;;16.50;89.40;16.20;98839.00;;;;5014088;28;20308;-76
2022/05/17 06:09:21;;;;;;;0.90;0.90;;;16.70;88.30;16.30;98843.00;;;;5014592;28;20568;-77
2022/05/17 06:11:50;;;;;;;1.43;1.43;;;16.70;89.00;16.40;98840.00;;;;5014169;28;20208;-76
2022/05/17 06:14:19;;;;;;;0.70;0.70;;;16.90;88.00;16.50;98838.00;;;;5013989;28;20240;-77
2022/05/17 06:16:45;;;;;;;1.50;1.10;;;17.00;87.80;16.60;98839.00;;;;5014181;28;20217;-76
2022/05/17 06:19:14;;;;;;;1.00;1.00;;;17.10;88.00;16.60;98836.00;;;;5014033;28;20208;-77
2022/05/17 06:21:41;;;;;;;2.47;1.53;;;;;16.70;98833.00;;;;5013054;28;20331;-75
2022/05/17 06:24:11;;;;;;;0.70;0.70;;;17.20;87.70;16.80;98841.00;;;;5013970;28;20524;-74
2022/05/17 06:26:37;;;;;;;2.87;2.27;;;17.30;88.70;16.90;98843.00;;;;5013964;28;20245;-75
2022/05/17 06:29:04;;;;;;;1.30;1.27;;;17.50;87.10;17.10;98845.00;;;;5014575;28;20221;-73
2022/05/17 06:31:31;;;;;;;0.90;0.90;;;17.50;87.60;17.20;98844.00;;;;5014662;28;20208;-76
2022/05/17 06:33:59;;;;;;;0.80;0.80;;;17.60;87.00;17.20;98841.00;;;;5014387;28;20232;-76
2022/05/17 06:36:25;;;;;;;0.70;0.70;;;17.70;86.40;17.30;98839.00;;;;5014255;28;20280;-75
2022/05/17 06:38:53;;;;;;;4.67;1.63;;;17.70;86.20;17.40;98849.00;;;;5014440;28;20231;-75
2022/05/17 06:41:20;;;;;;;1.07;1.07;;;18.00;85.30;17.50;98844.00;;;;5015604;28;20212;-73
2022/05/17 06:43:46;;;;;;;1.30;1.30;;;18.00;86.10;17.60;98846.00;;;;5025513;28;20288;-76
2022/05/17 06:46:13;;;;;;;1.20;1.20;;;18.10;85.30;17.60;98846.00;;;;5007591;28;20233;-80
2022/05/17 06:48:40;;;;;;;0.50;0.50;;;18.10;85.90;17.70;98849.00;;;;5021640;28;20217;-81
2022/05/17 06:51:08;;;;;;;1.00;1.00;;;18.20;85.00;17.90;98841.00;;;;5020005;28;20204;-80
2022/05/17 06:53:35;;;;;;;0.73;0.73;;;18.40;82.70;17.90;98835.00;;;;5020258;28;20197;-81
2022/05/17 06:56:06;;;;;;;1.20;1.10;;;18.40;82.40;18.00;98844.00;;;;5019938;28;20195;-79
2022/05/17 06:58:32;;;;;;;0.73;0.73;;;18.40;83.20;18.00;98840.00;;;;5019608;28;20252;-77
2022/05/17 07:00:59;;;;;;;0.60;0.60;;;18.40;84.00;18.10;98846.00;;;;5015958;28;20270;-80
2022/05/17 07:03:26;;;;;;;1.03;1.03;;;18.60;82.40;18.20;98848.00;;;;5013952;28;20205;-80
2022/05/17 07:05:53;;;;;;;2.20;1.77;;;18.70;82.10;18.20;98857.00;;;;5013672;28;20233;-84
2022/05/17 07:08:20;;;;;;;0.70;0.70;;;18.80;81.80;18.40;98849.00;;;;5013510;28;20339;-76
2022/05/17 07:13:34;;;;;;;0.80;0.80;;;19.00;80.70;18.50;98852.00;;;;5013897;28;20198;-78
2022/05/17 07:16:02;;;;;;;1.37;1.20;;;19.00;81.00;18.60;98853.00;;;;5013479;28;20272;-80
2022/05/17 07:18:29;;;;;;;0.43;0.43;;;;;18.70;98855.00;;;;5013290;28;20235;-82
2022/05/17 07:20:58;;;;;;;0.87;0.87;;;19.20;79.60;18.80;98859.00;;;;5013319;28;20527;-81
2022/05/17 07:23:26;;;;;;;1.07;0.97;;;;;18.80;98859.00;;;;5013593;28;20228;-81
2022/05/17 07:25:54;;;;;;;0.53;0.53;;;19.30;80.90;18.90;98853.00;;;;5013413;28;20256;-81
2022/05/17 07:28:23;;;;;;;0.70;0.70;;;;;19.00;98856.00;;;;5013570;28;20193;-81
2022/05/17 07:30:50;;;;;;;1.10;1.10;;;;;19.20;98860.00;;;;5012356;28;20229;-81
2022/05/17 07:33:17;;;;;;;0.77;0.77;;;;;19.20;98857.00;;;;5015997;28;20201;-80
2022/05/17 07:35:45;;;;;;;0.63;0.63;;;;;19.30;98854.00;;;;5016707;28;20258;-84
2022/05/17 07:38:13;;;;;;;0.50;0.50;;;;;19.40;98860.00;;;;5016763;28;20312;-81
2022/05/17 07:40:41;;;;;;;0.77;0.77;;;19.80;76.40;19.60;98859.00;;;;5016463;28;20189;-81
2022/05/17 07:43:09;;;;;;;0.83;0.83;;;;;19.70;98851.00;;;;4999085;28;20699;-82
2022/05/17 07:45:36;;;;;;;0.60;0.60;;;;;19.90;98854.00;;;;5015640;28;20202;-85
2022/05/17 07:48:03;;;;;;;0.90;0.90;;;;;20.00;98849.00;;;;5016479;28;20201;-85
2022/05/17 07:50:31;;;;;;;1.90;1.37;;;;;20.20;98853.00;;;;5016421;28;20304;-77
2022/05/17 07:52:57;;;;;;;0.47;0.47;;;20.50;70.00;20.10;98850.00;;;;5016260;28;20197;-83
2022/05/17 07:55:27;;;;;;;0.97;0.97;;;20.50;68.60;20.20;98848.00;;;;5016235;28;20288;-80
2022/05/17 07:57:54;;;;;;;0.70;0.70;;;;;20.30;98850.00;;;;5016281;28;20224;-80
2022/05/17 08:00:21;;;;;;;0.80;0.80;;;20.60;68.20;20.30;98854.00;;;;5016140;28;20636;-79
2022/05/17 08:02:47;;;;;;;1.33;1.13;;;20.70;69.70;20.60;98850.00;;;;4998733;28;20225;-79
2022/05/17 08:05:14;;;;;;;0.60;0.60;;;20.90;67.40;20.70;98845.00;;;;5016286;28;20254;-82
2022/05/17 08:07:41;;;;;;;0.57;0.57;;;21.00;65.80;20.80;98851.00;;;;5016072;28;20322;-83
2022/05/17 08:10:09;;;;;;;0.50;0.50;;;21.10;63.10;20.90;98848.00;;;;5016203;28;20570;-82
2022/05/17 08:12:36;;;;;;;0.50;0.50;;;21.20;63.00;21.00;98851.00;;;;5016121;28;20629;-84
2022/05/17 08:15:04;;;;;;;0.70;0.70;;;21.40;61.00;21.10;98845.00;;;;5016205;28;20209;-82
2022/05/17 08:17:31;;;;;;;0.63;0.63;;;;;21.30;98846.00;;;;5016148;28;20210;-80
2022/05/17 08:19:57;;;;;;;1.20;1.20;;;;;21.40;98849.00;;;;5016135;28;20280;-82
2022/05/17 08:22:24;;;;;;;0.98;0.98;;;21.80;57.70;21.60;98842.00;;;;5016023;28;20743;-79
2022/05/17 08:27:39;;;;;;;0.77;0.77;;;;;21.90;98848.00;;;;4998577;28;20235;-78
2022/05/17 08:30:12;;;;;;;0.50;0.50;;;;;22.00;98851.00;;;;5015803;28;20202;-83
2022/05/17 08:35:40;;;;;;;0.50;0.50;;;22.50;53.10;22.20;98849.00;;;;5015578;28;20228;-84
2022/05/17 08:38:07;;;;;;;1.05;1.05;;;22.50;51.10;22.40;98849.00;;;;5015897;28;20270;-82
2022/05/17 08:40:43;;;;;;;0.60;0.60;;;22.70;51.40;22.70;98848.00;;;;5015710;28;20284;-82
2022/05/17 08:43:28;;;;;;;0.60;0.60;;;22.90;49.30;22.70;98839.00;;;;5015397;28;20209;-84
2022/05/17 08:46:15;;;;;;;0.40;0.40;;;23.00;48.60;22.90;98847.00;;;;5015551;28;20220;-82
2022/05/17 08:48:50;;;;;;;1.17;1.15;;;23.20;48.40;22.90;98848.00;;;;5015560;28;20683;-77
2022/05/17 08:51:25;;;;;;;0.50;0.50;;;;;23.00;98840.00;;;;5015446;28;20296;-76
2022/05/17 08:53:54;;;;;;;0.75;0.75;;;23.30;47.10;23.00;98843.00;;;;5015609;28;20217;-80
2022/05/17 08:56:21;;;;;;;0.57;0.57;;;23.40;44.50;22.80;98824.00;;;;5015453;28;20276;-80
2022/05/17 08:58:55;;;;;;;0.68;0.68;;;;;23.00;98836.00;;;;5015284;28;20279;-81
2022/05/17 09:01:28;;;;;;;1.30;1.20;;;23.30;45.30;23.10;98833.00;;;;5015290;28;20221;-78
2022/05/17 09:04:25;;;;;;;1.15;0.90;;;23.40;47.80;23.30;98838.00;;;;5015372;28;20284;-79
2022/05/17 09:07:05;;;;;;;0.85;0.85;;;23.60;46.40;23.50;98815.00;;;;5015072;28;20672;-80
2022/05/17 09:09:45;;;;;;;1.73;1.63;;;;;23.60;98834.00;;;;5015165;28;20217;-79
2022/05/17 09:12:26;;;;;;;0.40;0.40;;;23.80;45.00;23.50;98835.00;;;;5015176;28;20260;-79
2022/05/17 09:15:00;;;;;;;1.35;1.25;;;23.80;42.70;23.70;98828.00;;;;5015061;28;20229;-79
2022/05/17 09:17:29;;;;;;;0.70;0.70;;;23.90;43.30;23.50;98826.00;;;;5015050;28;20240;-78
2022/05/17 09:19:56;;;;;;;0.43;0.43;;;23.80;42.80;23.80;98832.00;;;;5014920;28;20201;-83
2022/05/17 09:22:25;;;;;;;1.08;1.08;;;24.00;44.30;23.20;98823.00;;;;5014080;28;20201;-84
2022/05/17 09:24:59;;;;;;;0.73;0.73;;;23.70;42.20;23.50;98826.00;;;;4997701;28;20544;-83
2022/05/17 09:27:29;;;;;;;0.73;0.73;;;;;23.70;98833.00;;;;5014804;28;20229;-81
2022/05/17 09:30:04;;;;;;;1.70;1.60;;;;;23.80;98830.00;;;;5014975;28;20193;-84
2022/05/17 09:32:38;;;;;;;0.57;0.57;;;24.10;44.40;23.90;98836.00;;;;5015074;28;20300;-81
2022/05/17 09:35:13;;;;;;;0.57;0.57;;;24.30;43.30;23.90;98839.00;;;;5014760;28;20215;-84
2022/05/17 09:37:43;;;;;;;0.57;0.57;;;24.30;42.50;23.80;98839.00;;;;5014816;28;20361;-84
2022/05/17 09:40:22;;;;;;;1.67;1.58;;;24.20;43.70;23.90;98842.00;;;;5013745;28;20283;-84
2022/05/17 09:42:54;;;;;;;0.40;0.40;;;;;23.90;98842.00;;;;5013889;28;20248;-83
2022/05/17 09:45:46;;;;;;;1.45;1.25;;;;;24.10;98835.00;;;;5014566;28;20194;-81
2022/05/17 09:48:25;;;;;;;0.50;0.50;;;24.30;42.80;24.10;98836.00;;;;5014652;28;20182;-82
2022/05/17 09:53:45;;;;;;;0.50;0.50;;;24.60;43.30;24.20;98838.00;;;;4997453;28;20521;-77
2022/05/17 09:56:13;;;;;;;0.63;0.63;;;24.50;42.30;24.30;98827.00;;;;5014550;28;20208;-76
2022/05/17 09:58:42;;;;;;;0.77;0.70;;;;;24.50;98835.00;;;;5014244;28;20672;-77
2022/05/17 10:01:15;;;;;;;13.32;1.00;;;24.80;41.30;24.60;98830.00;;;;5014296;28;20213;-77
2022/05/17 10:03:59;;;;;;;0.50;0.50;;;24.90;42.00;24.60;98827.00;;;;4996951;28;20258;-78
2022/05/17 10:06:31;;;;;;;0.30;0.30;;;;;24.80;98830.00;;;;5014102;28;20252;-78
2022/05/17 10:09:01;;;;;;;0.80;0.80;;;25.10;39.50;24.70;98836.00;;;;5014472;28;20217;-80
2022/05/17 10:11:40;;;;;;;1.05;0.95;;;25.00;38.90;24.40;98836.00;;;;5014163;28;20364;-78
2022/05/17 10:14:26;;;;;;;0.90;0.90;;;24.90;39.30;24.50;98832.00;;;;5014361;28;20714;-79
2022/05/17 10:16:59;;;;;;;7.43;0.95;;;24.80;40.00;24.50;98832.00;;;;5014224;28;20227;-80
2022/05/17 10:19:41;;;;;;;0.40;0.40;;;;;24.70;98825.00;;;;5014034;28;20197;-81
2022/05/17 10:22:22;;;;;;;0.50;0.50;;;25.00;40.60;24.90;98823.00;;;;5014356;28;20193;-79
2022/05/17 10:24:55;;;;;;;1.98;0.98;;;25.10;39.60;25.20;98826.00;;;;5014008;28;20282;-81
2022/05/17 10:27:32;;;;;;;0.82;0.82;;;25.30;39.70;25.20;98826.00;;;;5014144;28;20241;-79
2022/05/17 10:30:08;;;;;;;0.80;0.80;;;25.30;36.50;25.10;98819.00;;;;5015237;28;20197;-80
2022/05/17 10:32:42;;;;;;;0.82;0.70;;;25.30;37.20;25.20;98805.00;;;;5014628;28;20223;-79
2022/05/17 10:35:16;;;;;;;0.60;0.60;;;;;25.20;98808.00;;;;5014592;28;20323;-78
2022/05/17 10:37:52;;;;;;;0.88;0.88;;;25.40;34.80;25.20;98816.00;;;;5015387;28;20296;-81
2022/05/17 10:40:24;;;;;;;0.80;0.80;;;25.50;33.30;24.90;98819.00;;;;5018835;28;20193;-78
2022/05/17 10:42:51;;;;;;;0.50;0.50;;;25.20;31.10;24.70;98811.00;;;;5025773;28;20208;-78
2022/05/17 10:45:21;;;;;;;0.50;0.50;;;25.10;31.30;24.80;98814.00;;;;5024426;28;20217;-79
2022/05/17 10:47:58;;;;;;;1.45;1.35;;;25.10;32.30;24.90;98805.00;;;;5020404;28;20312;-78
2022/05/17 10:50:37;;;;;;;0.73;0.70;;;25.20;34.30;25.20;98806.00;;;;5019697;28;20217;-76
2022/05/17 10:53:23;;;;;;;1.13;1.05;;;25.40;33.60;25.20;98800.00;;;;5019973;28;20211;-78
2022/05/17 10:56:06;;;;;;;0.40;0.40;;;;;25.40;98803.00;;;;5019437;28;20217;-77
2022/05/17 10:58:49;;;;;;;1.00;1.00;;;25.60;33.70;25.30;98797.00;;;;5018150;28;20201;-78
2022/05/17 11:01:24;;;;;;;1.02;0.98;;;25.60;34.40;25.60;98796.00;;;;5015029;28;20280;-78
2022/05/17 11:04:34;;;;;;;0.55;0.55;;;25.80;35.00;26.10;98793.00;;;;5014358;28;20228;-78
2022/05/17 11:07:17;;;;;;;0.90;0.90;;;26.20;33.90;26.20;98795.00;;;;4999474;28;20311;-77
2022/05/17 11:09:59;;;;;;;1.05;0.95;;;26.40;34.10;26.10;98792.00;;;;5018316;28;20221;-77
2022/05/17 11:12:35;;;;;;;0.43;0.43;;;26.30;33.70;26.30;98795.00;;;;5017383;28;20268;-78
2022/05/17 11:15:10;;;;;;;1.25;1.15;;;26.50;33.90;26.40;98785.00;;;;5016912;28;20267;-79
2022/05/17 11:17:50;;;;;;;0.55;0.55;;;26.60;34.20;26.70;98777.00;;;;5016939;28;20227;-79
2022/05/17 11:20:26;;;;;;;0.60;0.60;;;26.90;33.90;26.70;98780.00;;;;5016845;28;20593;-79
2022/05/17 11:23:11;;;;;;;1.73;1.02;;;27.00;32.60;26.80;98776.00;;;;5016682;28;20229;-78
2022/05/17 11:26:11;;;;;;;0.80;0.80;;;;;26.90;98775.00;;;;5016568;28;20193;-78
2022/05/17 11:29:28;;;;;;;0.60;0.60;;;27.20;30.50;27.30;98780.00;;;;5016589;28;20229;-79